Time;durP1;ratioP1;P1;durP2;ratioP2;P2;SDS_P1;SDS_P2;PMS_P1;PMS_P2;Temp;Humidity;BMP_temperature;BMP_pressure;BME280_temperature;BME280_humidity;BME280_pressure;Samples;Min_cycle;Max_cycle;Signal;HPM_P1;HPM_P2
2023/07/09 00:02:20;;;;;;;6.93;4.25;;;;;;;20.80;66.15;95563.25;5017279;28;20237;-74
2023/07/09 00:04:45;;;;;;;9.50;3.90;;;;;;;20.85;65.74;95565.16;5009815;28;20237;-74
2023/07/09 00:07:21;;;;;;;8.95;3.55;;;;;;;20.85;65.72;95560.63;5035918;28;20708;-74
2023/07/09 00:09:46;;;;;;;5.63;3.45;;;;;;;20.80;65.82;95560.56;5019197;28;20240;-74
2023/07/09 00:12:16;;;;;;;7.40;3.70;;;;;;;20.86;65.98;95562.25;5027148;28;20284;-74
2023/07/09 00:14:41;;;;;;;7.45;3.40;;;;;;;20.86;66.11;95553.44;5011634;28;20716;-74
2023/07/09 00:17:37;;;;;;;5.30;3.35;;;;;;;20.81;65.87;95551.53;5040391;28;20320;-74
2023/07/09 00:20:13;;;;;;;5.38;3.30;;;;;;;20.80;66.13;95561.34;5036725;28;20241;-74
2023/07/09 00:22:39;;;;;;;5.88;3.53;;;;;;;20.76;66.20;95559.44;5041609;28;20246;-74
2023/07/09 00:25:04;;;;;;;7.05;3.72;;;;;;;20.77;66.57;95558.41;5030156;28;20711;-73
2023/07/09 00:27:32;;;;;;;8.18;3.60;;;;;;;20.77;66.26;95550.41;5011796;28;20231;-74
2023/07/09 00:29:58;;;;;;;5.72;3.38;;;;;;;20.71;66.63;95548.72;5028133;28;20226;-74
2023/07/09 00:32:25;;;;;;;5.63;3.30;;;;;;;20.71;66.50;95552.19;5006555;28;20247;-74
2023/07/09 00:34:51;;;;;;;6.57;3.42;;;;;;;20.62;66.10;95553.69;5024533;28;20231;-74
2023/07/09 00:37:17;;;;;;;6.78;3.38;;;;;;;20.60;66.32;95549.66;5023589;28;20321;-74
2023/07/09 00:39:43;;;;;;;9.55;3.65;;;;;;;20.64;66.34;95550.75;5008604;28;20237;-74
2023/07/09 00:42:17;;;;;;;5.30;3.35;;;;;;;20.59;66.99;95548.03;5018925;28;20226;-74
2023/07/09 00:44:46;;;;;;;6.35;3.70;;;;;;;20.57;66.12;95547.47;5011521;28;20225;-73
2023/07/09 00:47:41;;;;;;;8.50;3.42;;;;;;;20.63;66.50;95541.19;5025541;28;20237;-74
2023/07/09 00:50:16;;;;;;;7.50;3.58;;;;;;;20.56;66.61;95544.00;5044986;28;20226;-74
2023/07/09 00:53:20;;;;;;;4.90;3.30;;;;;;;20.57;66.37;95542.97;5026448;28;20233;-75
2023/07/09 00:55:56;;;;;;;6.93;3.40;;;;;;;20.65;65.97;95533.78;5015016;28;20287;-74
2023/07/09 00:58:21;;;;;;;6.93;3.25;;;;;;;20.60;66.52;95541.69;5032268;28;20287;-74
2023/07/09 01:00:52;;;;;;;7.38;3.50;;;;;;;20.55;65.96;95537.09;5027107;28;20231;-74
2023/07/09 01:03:20;;;;;;;7.50;3.42;;;;;;;20.59;66.36;95542.72;5013405;28;20230;-74
2023/07/09 01:05:51;;;;;;;5.57;3.40;;;;;;;20.52;66.37;95542.91;5043556;28;20229;-77
2023/07/09 01:08:17;;;;;;;7.85;3.40;;;;;;;20.54;66.37;95535.47;5018065;28;20217;-73
2023/07/09 01:10:43;;;;;;;6.53;3.70;;;;;;;20.52;66.12;95534.94;5046558;28;20237;-74
2023/07/09 01:13:08;;;;;;;7.07;3.70;;;;;;;20.54;66.27;95535.47;5023649;28;20285;-74
2023/07/09 01:15:37;;;;;;;6.00;3.45;;;;;;;20.50;66.52;95538.88;5041432;28;20294;-74
2023/07/09 01:18:03;;;;;;;10.40;3.70;;;;;;;20.51;66.37;95543.16;5032894;28;20287;-74
2023/07/09 01:20:29;;;;;;;9.20;3.47;;;;;;;20.46;66.44;95533.25;5022608;28;20379;-73
2023/07/09 01:22:56;;;;;;;5.28;3.38;;;;;;;20.52;66.20;95528.78;5013395;28;20266;-74
2023/07/09 01:25:23;;;;;;;7.22;3.20;;;;;;;20.54;65.87;95534.69;5044451;28;20225;-74
2023/07/09 01:27:49;;;;;;;7.45;3.22;;;;;;;20.48;66.86;95527.69;5039441;28;20296;-74
2023/07/09 01:30:22;;;;;;;8.32;3.70;;;;;;;20.48;66.62;95533.00;5020479;28;20313;-74
2023/07/09 01:32:51;;;;;;;5.65;3.40;;;;;;;20.42;66.31;95526.81;5011043;28;20237;-74
2023/07/09 01:35:18;;;;;;;5.85;3.50;;;;;;;20.26;69.36;95521.53;5011395;28;20226;-74
2023/07/09 01:37:44;;;;;;;6.67;3.37;;;;;;;19.95;73.08;95531.69;5005492;28;20242;-74
2023/07/09 01:40:11;;;;;;;5.90;3.58;;;;;;;19.96;71.96;95527.19;5009134;28;20225;-74
2023/07/09 01:42:38;;;;;;;7.37;3.53;;;;;;;19.90;72.67;95528.13;5025714;28;20258;-74
2023/07/09 01:45:04;;;;;;;6.22;3.60;;;;;;;19.78;72.83;95530.06;5011879;28;20282;-74
2023/07/09 01:47:30;;;;;;;7.10;3.45;;;;;;;19.58;73.50;95543.84;5014701;28;20237;-74
2023/07/09 01:49:59;;;;;;;6.78;3.70;;;;;;;19.34;74.47;95551.09;5012058;28;20237;-73
2023/07/09 01:52:29;;;;;;;7.63;3.70;;;;;;;19.07;75.53;95552.69;5015125;28;20233;-73
2023/07/09 01:54:54;;;;;;;5.88;3.70;;;;;;;19.12;75.74;95547.50;5015457;28;20241;-74
2023/07/09 01:57:24;;;;;;;12.63;3.60;;;;;;;18.92;75.95;95551.59;5026877;28;20257;-73
2023/07/09 01:59:54;;;;;;;5.83;3.63;;;;;;;18.88;76.06;95550.44;5000450;28;20644;-74
2023/07/09 02:02:22;;;;;;;6.60;3.88;;;;;;;18.96;76.89;95556.22;5029686;28;20239;-74
2023/07/09 02:04:49;;;;;;;4.40;3.33;;;;;;;18.93;76.69;95554.00;5020723;28;20336;-75
2023/07/09 02:07:15;;;;;;;6.97;3.70;;;;;;;18.91;76.99;95552.63;5025058;28;20233;-74
2023/07/09 02:09:40;;;;;;;9.02;4.13;;;;;;;18.83;78.23;95565.22;5030360;28;20402;-75
2023/07/09 02:12:06;;;;;;;7.00;3.93;;;;;;;18.64;79.22;95555.00;5024414;28;20237;-75
2023/07/09 02:14:32;;;;;;;5.65;4.00;;;;;;;18.68;78.80;95550.84;5009618;28;20755;-74
2023/07/09 02:16:57;;;;;;;5.28;3.80;;;;;;;18.80;79.35;95551.63;5018189;28;20233;-74
2023/07/09 02:19:23;;;;;;;6.77;3.70;;;;;;;18.62;80.00;95555.25;5050040;28;20666;-74
2023/07/09 02:21:48;;;;;;;8.83;4.00;;;;;;;18.59;80.64;95547.75;5032134;28;20306;-74
2023/07/09 02:24:14;;;;;;;6.18;4.07;;;;;;;18.36;81.39;95547.78;5045770;28;20220;-73
2023/07/09 02:26:39;;;;;;;6.90;4.20;;;;;;;18.46;81.54;95548.00;5006504;28;20237;-73
2023/07/09 02:29:05;;;;;;;7.97;4.00;;;;;;;18.36;82.32;95555.72;5031314;28;20233;-73
2023/07/09 02:31:30;;;;;;;6.87;4.10;;;;;;;18.24;82.04;95560.22;5023838;28;20825;-73
2023/07/09 02:33:56;;;;;;;8.87;4.30;;;;;;;18.21;83.14;95563.31;5016381;28;20229;-74
2023/07/09 02:36:23;;;;;;;8.20;4.27;;;;;;;18.01;82.69;95561.00;5036595;28;20232;-74
2023/07/09 02:38:49;;;;;;;6.20;3.80;;;;;;;18.09;83.29;95562.50;5042081;28;20335;-72
2023/07/09 02:41:15;;;;;;;9.23;4.47;;;;;;;18.30;81.88;95575.19;5036162;28;20886;-73
2023/07/09 02:43:40;;;;;;;7.20;4.20;;;;;;;18.18;83.08;95571.72;5047556;28;20233;-74
2023/07/09 02:46:06;;;;;;;7.77;4.37;;;;;;;18.09;83.10;95570.47;5037878;28;20763;-73
2023/07/09 02:48:31;;;;;;;8.87;4.40;;;;;;;17.98;84.42;95573.91;5043054;28;20230;-74
2023/07/09 02:50:57;;;;;;;6.47;4.23;;;;;;;17.95;84.70;95582.31;5027125;28;20230;-74
2023/07/09 02:53:22;;;;;;;6.17;4.20;;;;;;;17.58;85.89;95578.22;5035582;28;20217;-74
2023/07/09 02:55:47;;;;;;;6.90;4.40;;;;;;;17.59;85.91;95585.13;5030447;28;20244;-74
2023/07/09 02:58:13;;;;;;;9.30;4.50;;;;;;;17.65;85.72;95584.22;5035727;28;20225;-74
2023/07/09 03:00:38;;;;;;;7.77;4.60;;;;;;;17.87;85.46;95585.28;5035173;28;20230;-74
2023/07/09 03:03:04;;;;;;;6.00;4.27;;;;;;;18.00;85.10;95596.50;5028362;28;20266;-73
2023/07/09 03:05:29;;;;;;;8.27;4.20;;;;;;;17.60;86.39;95594.69;5037100;28;20661;-73
2023/07/09 03:07:55;;;;;;;6.53;4.50;;;;;;;17.64;86.77;95595.84;5020066;28;20621;-73
2023/07/09 03:10:20;;;;;;;7.83;4.40;;;;;;;17.76;85.61;95601.97;5057074;28;20626;-74
2023/07/09 03:12:46;;;;;;;10.50;4.50;;;;;;;17.71;85.65;95600.00;5051408;28;20252;-74
2023/07/09 03:15:11;;;;;;;8.83;4.70;;;;;;;17.82;85.54;95599.22;5049390;28;20225;-74
2023/07/09 03:17:37;;;;;;;7.30;4.57;;;;;;;17.73;86.24;95594.47;5051468;28;20232;-74
2023/07/09 03:20:02;;;;;;;8.67;4.67;;;;;;;17.66;86.66;95607.00;5038568;28;20224;-74
2023/07/09 03:22:28;;;;;;;6.90;4.50;;;;;;;17.71;86.25;95599.19;5037359;28;20233;-74
2023/07/09 03:24:53;;;;;;;8.43;4.87;;;;;;;17.89;85.19;95599.91;5031844;28;20387;-74
2023/07/09 03:27:19;;;;;;;9.73;4.60;;;;;;;17.65;86.36;95606.19;5035272;28;20229;-74
2023/07/09 03:29:44;;;;;;;9.73;4.83;;;;;;;17.69;86.64;95603.91;5055401;28;20239;-73
2023/07/09 03:32:10;;;;;;;8.93;4.80;;;;;;;17.52;87.08;95605.59;5020093;28;20229;-73
2023/07/09 03:34:35;;;;;;;6.87;4.53;;;;;;;17.64;86.71;95606.44;5018905;28;20225;-73
2023/07/09 03:37:00;;;;;;;7.50;4.50;;;;;;;17.71;86.39;95605.31;5048687;28;20236;-74
2023/07/09 03:39:26;;;;;;;10.77;4.50;;;;;;;17.77;86.67;95595.66;5021786;28;20286;-73
2023/07/09 03:41:52;;;;;;;10.93;4.90;;;;;;;17.73;86.89;95599.78;5035711;28;20236;-73
2023/07/09 03:44:17;;;;;;;10.57;4.80;;;;;;;17.75;86.88;95598.50;5034164;28;20283;-74
2023/07/09 03:46:42;;;;;;;7.10;4.73;;;;;;;17.72;86.95;95603.47;5034386;28;20246;-73
2023/07/09 03:49:08;;;;;;;6.87;4.50;;;;;;;17.80;86.34;95605.78;5019308;28;20279;-74
2023/07/09 03:51:34;;;;;;;9.87;4.60;;;;;;;17.83;86.17;95606.13;5035445;28;20248;-73
2023/07/09 03:53:59;;;;;;;10.27;5.00;;;;;;;17.80;86.60;95601.28;5032799;28;20236;-74
2023/07/09 03:56:25;;;;;;;10.47;4.50;;;;;;;17.64;87.83;95611.72;5030434;28;20275;-73
2023/07/09 03:58:50;;;;;;;12.53;4.90;;;;;;;17.77;86.96;95608.91;5041664;28;20269;-74
2023/07/09 04:01:16;;;;;;;8.40;4.90;;;;;;;17.74;86.86;95612.00;5022603;28;20233;-74
2023/07/09 04:03:41;;;;;;;7.70;4.90;;;;;;;17.79;87.02;95612.13;5047728;28;20226;-74
2023/07/09 04:06:07;;;;;;;9.83;4.50;;;;;;;17.94;86.20;95612.47;5034420;28;20235;-73
2023/07/09 04:08:32;;;;;;;8.50;4.63;;;;;;;17.95;85.74;95625.50;5036025;28;20236;-74
2023/07/09 04:11:02;;;;;;;8.03;4.70;;;;;;;18.03;86.17;95621.72;5034871;28;20232;-74
2023/07/09 04:13:28;;;;;;;7.17;4.70;;;;;;;18.22;85.07;95625.91;5020364;28;20644;-73
2023/07/09 04:15:54;;;;;;;8.40;4.90;;;;;;;18.35;84.01;95617.72;5010651;28;20241;-74
2023/07/09 04:18:19;;;;;;;11.17;4.53;;;;;;;18.48;83.26;95632.63;5051007;28;20222;-73
2023/07/09 04:20:49;;;;;;;12.43;4.50;;;;;;;18.62;82.25;95634.00;5035580;28;20239;-73
2023/07/09 04:23:15;;;;;;;11.43;4.43;;;;;;;18.76;80.46;95635.34;5027098;28;20248;-73
2023/07/09 04:25:40;;;;;;;9.77;4.23;;;;;;;18.79;81.06;95633.03;5047645;28;20563;-74
2023/07/09 04:28:05;;;;;;;8.90;4.70;;;;;;;18.83;80.24;95636.03;5047047;28;20599;-73
2023/07/09 04:30:31;;;;;;;9.30;4.40;;;;;;;18.74;81.06;95635.59;5034262;28;20711;-73
2023/07/09 04:32:57;;;;;;;9.40;4.73;;;;;;;18.53;82.31;95638.81;5021226;28;20713;-73
2023/07/09 04:35:23;;;;;;;11.90;4.57;;;;;;;18.28;84.02;95640.88;5027688;28;20225;-73
2023/07/09 04:37:49;;;;;;;10.30;4.30;;;;;;;18.26;85.08;95642.13;5049233;28;20224;-73
2023/07/09 04:40:15;;;;;;;9.00;4.50;;;;;;;18.14;86.08;95644.78;5053287;28;20217;-73
2023/07/09 04:42:40;;;;;;;10.57;4.53;;;;;;;18.20;86.82;95651.78;5038932;28;20244;-73
2023/07/09 04:45:07;;;;;;;8.63;4.70;;;;;;;18.40;86.50;95646.16;5018630;28;20238;-73
2023/07/09 04:47:32;;;;;;;12.13;5.10;;;;;;;18.60;84.06;95649.34;5047649;28;20229;-73
2023/07/09 04:49:58;;;;;;;10.30;4.67;;;;;;;18.29;86.01;95639.03;5052551;28;20222;-74
2023/07/09 04:52:23;;;;;;;10.23;4.80;;;;;;;18.33;86.57;95638.34;5038397;28;20248;-73
2023/07/09 04:54:50;;;;;;;11.07;4.77;;;;;;;18.12;86.51;95641.53;5051127;28;20252;-74
2023/07/09 04:57:15;;;;;;;11.63;4.90;;;;;;;18.33;87.12;95630.38;5043878;28;20237;-73
2023/07/09 04:59:41;;;;;;;10.33;5.07;;;;;;;18.50;85.91;95641.94;5026290;28;20233;-74
2023/07/09 05:02:07;;;;;;;11.53;4.87;;;;;;;18.49;85.94;95642.97;5046944;28;20332;-73
2023/07/09 05:04:32;;;;;;;18.63;4.90;;;;;;;18.74;85.48;95648.06;5021573;28;20241;-73
2023/07/09 05:06:58;;;;;;;9.30;4.77;;;;;;;19.03;82.83;95646.28;5031696;28;20738;-74
2023/07/09 05:09:23;;;;;;;10.97;5.10;;;;;;;18.99;84.17;95643.28;5044922;28;20602;-74
2023/07/09 05:11:49;;;;;;;10.80;5.00;;;;;;;19.07;84.79;95650.06;5014820;28;20245;-74
2023/07/09 05:14:15;;;;;;;9.20;4.40;;;;;;;19.34;83.81;95643.19;5043266;28;20276;-74
2023/07/09 05:16:40;;;;;;;8.47;4.80;;;;;;;19.22;81.45;95653.84;5037048;28;21128;-74
2023/07/09 05:19:08;;;;;;;10.53;5.27;;;;;;;19.23;84.65;95652.81;5038019;28;20276;-74
2023/07/09 05:21:34;;;;;;;14.65;4.90;;;;;;;20.22;79.86;95653.31;5047420;28;20233;-74
2023/07/09 05:23:59;;;;;;;13.20;4.90;;;;;;;20.22;78.92;95656.81;5036681;28;20232;-74
2023/07/09 05:26:25;;;;;;;8.90;4.87;;;;;;;20.01;80.10;95662.81;5030403;28;20619;-74
2023/07/09 05:28:50;;;;;;;7.53;4.70;;;;;;;19.98;79.41;95657.97;5031274;28;20233;-75
2023/07/09 05:31:16;;;;;;;11.17;4.70;;;;;;;20.08;77.84;95653.59;5030772;28;20236;-74
2023/07/09 05:33:41;;;;;;;8.53;4.73;;;;;;;20.22;76.69;95653.31;5049772;28;20279;-74
2023/07/09 05:36:08;;;;;;;7.80;4.78;;;;;;;20.41;74.79;95654.72;5016827;28;20244;-74
2023/07/09 05:38:33;;;;;;;8.57;4.32;;;;;;;20.40;74.42;95650.44;5020199;28;20354;-74
2023/07/09 05:41:03;;;;;;;6.47;4.33;;;;;;;20.46;74.41;95652.13;5032768;28;20228;-74
2023/07/09 05:43:29;;;;;;;7.45;4.13;;;;;;;20.42;72.56;95648.34;5009488;28;20710;-75
2023/07/09 05:45:54;;;;;;;10.38;3.90;;;;;;;20.47;72.32;95651.06;5023364;28;20243;-74
2023/07/09 05:48:19;;;;;;;8.00;4.13;;;;;;;20.49;72.26;95657.75;5022302;28;20233;-74
2023/07/09 05:50:45;;;;;;;10.50;4.18;;;;;;;20.48;71.34;95650.03;5021764;28;20238;-75
2023/07/09 05:53:10;;;;;;;10.30;4.77;;;;;;;20.47;71.93;95651.06;5011298;28;20234;-74
2023/07/09 05:55:36;;;;;;;7.97;4.50;;;;;;;20.52;71.80;95638.66;5030876;28;20232;-74
2023/07/09 05:58:02;;;;;;;7.73;4.17;;;;;;;20.58;71.08;95648.34;5012013;28;20237;-74
2023/07/09 06:00:28;;;;;;;8.43;4.40;;;;;;;20.73;70.90;95655.72;5023193;28;20222;-75
2023/07/09 06:02:53;;;;;;;7.13;4.20;;;;;;;20.83;70.82;95648.69;5021857;28;20481;-75
2023/07/09 06:05:20;;;;;;;8.75;4.40;;;;;;;20.82;71.01;95649.72;5028355;28;20229;-74
2023/07/09 06:07:45;;;;;;;7.00;4.25;;;;;;;20.85;70.79;95653.75;5029578;28;20245;-75
2023/07/09 06:10:11;;;;;;;10.47;4.70;;;;;;;20.95;71.00;95653.91;5024760;28;20225;-75
2023/07/09 06:12:36;;;;;;;7.82;4.22;;;;;;;21.06;71.09;95649.56;5012166;28;20234;-74
2023/07/09 06:15:02;;;;;;;9.60;4.60;;;;;;;21.04;70.58;95641.00;5029458;28;20328;-74
2023/07/09 06:17:27;;;;;;;8.30;4.35;;;;;;;21.08;70.47;95639.47;5028331;28;20234;-74
2023/07/09 06:19:53;;;;;;;8.30;4.30;;;;;;;21.13;70.40;95640.34;5025762;28;20280;-75
2023/07/09 06:22:18;;;;;;;10.85;4.40;;;;;;;21.12;69.55;95633.41;5007837;28;20234;-75
2023/07/09 06:24:45;;;;;;;11.63;4.70;;;;;;;21.13;69.82;95637.69;5024642;28;20252;-75
2023/07/09 06:27:10;;;;;;;7.70;4.35;;;;;;;21.24;69.55;95641.25;5028085;28;20280;-75
2023/07/09 06:29:36;;;;;;;10.55;4.80;;;;;;;21.23;69.65;95639.66;5001920;28;20231;-75
2023/07/09 06:32:01;;;;;;;7.55;4.25;;;;;;;21.31;68.85;95634.69;5028316;28;20245;-75
2023/07/09 06:34:27;;;;;;;10.52;4.28;;;;;;;21.38;68.65;95635.31;5030476;28;20217;-75
2023/07/09 06:36:52;;;;;;;7.18;4.38;;;;;;;21.38;67.97;95637.16;5028370;28;20237;-74
2023/07/09 06:39:19;;;;;;;8.57;4.40;;;;;;;21.39;69.25;95639.59;5028420;28;20237;-74
2023/07/09 06:41:44;;;;;;;9.27;4.20;;;;;;;21.41;69.09;95642.81;5021325;28;20241;-74
2023/07/09 06:44:10;;;;;;;10.55;4.35;;;;;;;21.46;68.72;95640.22;5027887;28;20719;-74
2023/07/09 06:46:35;;;;;;;10.05;4.22;;;;;;;21.47;68.96;95630.34;5029983;28;20237;-75
2023/07/09 06:49:02;;;;;;;8.63;4.30;;;;;;;21.52;69.24;95633.06;5023108;28;20246;-73
2023/07/09 06:51:27;;;;;;;8.63;4.80;;;;;;;21.55;69.33;95635.22;5058164;28;20231;-74
2023/07/09 06:53:53;;;;;;;7.85;4.50;;;;;;;21.66;69.07;95628.16;5030510;28;20225;-74
2023/07/09 06:56:18;;;;;;;8.40;4.40;;;;;;;21.70;68.91;95630.06;5003968;28;20235;-75
2023/07/09 06:58:45;;;;;;;9.20;5.07;;;;;;;21.71;68.06;95633.53;5040205;28;20237;-74
2023/07/09 07:01:11;;;;;;;7.45;3.88;;;;;;;21.87;67.52;95632.66;5018686;28;20303;-74
2023/07/09 07:03:36;;;;;;;6.20;4.30;;;;;;;21.92;65.67;95630.88;5019643;28;20280;-74
2023/07/09 07:06:02;;;;;;;6.75;4.20;;;;;;;22.00;66.88;95629.56;5013191;28;20687;-75
2023/07/09 07:08:28;;;;;;;10.95;4.35;;;;;;;22.01;66.39;95637.34;5028276;28;20226;-74
2023/07/09 07:11:02;;;;;;;7.03;4.03;;;;;;;22.10;68.06;95635.00;5014750;28;20234;-74
2023/07/09 07:13:35;;;;;;;8.02;4.30;;;;;;;22.10;66.30;95630.47;5014131;28;20227;-72
2023/07/09 07:16:08;;;;;;;6.78;4.10;;;;;;;22.15;65.70;95637.72;5016723;28;20704;-75
2023/07/09 07:18:33;;;;;;;6.13;4.18;;;;;;;22.12;66.15;95639.03;4997549;28;20712;-74
2023/07/09 07:20:59;;;;;;;8.73;4.43;;;;;;;22.24;66.61;95636.19;5010876;28;20284;-75
2023/07/09 07:23:24;;;;;;;9.05;3.80;;;;;;;22.18;64.68;95626.56;4999296;28;20226;-74
2023/07/09 07:25:50;;;;;;;7.38;4.10;;;;;;;22.20;64.64;95621.75;5031344;28;20257;-75
2023/07/09 07:28:16;;;;;;;9.27;4.10;;;;;;;22.26;65.14;95618.06;5010863;28;20315;-75
2023/07/09 07:30:41;;;;;;;6.55;3.95;;;;;;;22.45;64.95;95621.94;4993444;28;20730;-73
2023/07/09 07:33:07;;;;;;;7.10;3.97;;;;;;;22.56;63.18;95618.31;5031110;28;20287;-75
2023/07/09 07:35:32;;;;;;;8.07;4.07;;;;;;;22.59;63.98;95617.75;5014383;28;20609;-74
2023/07/09 07:37:58;;;;;;;6.22;4.15;;;;;;;22.61;64.45;95613.03;5033025;28;20231;-74
2023/07/09 07:40:23;;;;;;;6.88;3.90;;;;;;;22.63;63.29;95620.78;5039502;28;20236;-74
2023/07/09 07:42:48;;;;;;;7.63;4.00;;;;;;;22.70;62.45;95618.69;5013956;28;20736;-74
2023/07/09 07:45:14;;;;;;;5.18;3.88;;;;;;;22.75;63.18;95619.53;5028488;28;20235;-74
2023/07/09 07:47:40;;;;;;;9.25;4.07;;;;;;;22.73;62.80;95627.00;5011262;28;20325;-74
2023/07/09 07:50:07;;;;;;;8.23;4.20;;;;;;;22.79;61.31;95619.78;5032413;28;20233;-74
2023/07/09 07:52:32;;;;;;;6.75;4.00;;;;;;;22.88;62.14;95626.25;5006665;28;20298;-74
2023/07/09 07:54:58;;;;;;;7.03;3.83;;;;;;;22.90;62.75;95618.00;5026704;28;20230;-75
2023/07/09 07:57:27;;;;;;;10.20;4.10;;;;;;;22.93;62.99;95615.59;5029203;28;20314;-74
2023/07/09 07:59:52;;;;;;;7.75;3.70;;;;;;;23.07;61.83;95610.63;5027935;28;20760;-75
2023/07/09 08:02:18;;;;;;;6.20;4.03;;;;;;;23.15;63.24;95616.25;5031049;28;20237;-74
2023/07/09 08:04:43;;;;;;;5.53;3.83;;;;;;;23.15;60.06;95620.78;4994703;28;20304;-74
2023/07/09 08:07:09;;;;;;;9.32;4.03;;;;;;;23.20;60.81;95618.13;5030227;28;20226;-75
2023/07/09 08:09:35;;;;;;;6.88;3.85;;;;;;;23.26;60.46;95614.44;5016690;28;20732;-74
2023/07/09 08:12:05;;;;;;;7.63;3.72;;;;;;;23.37;61.17;95611.56;5014921;28;20239;-77
2023/07/09 08:14:30;;;;;;;6.70;4.00;;;;;;;23.36;60.94;95601.13;5007287;28;20225;-74
2023/07/09 08:16:56;;;;;;;8.43;3.97;;;;;;;23.41;60.56;95606.47;5031278;28;20239;-73
2023/07/09 08:19:21;;;;;;;6.10;3.90;;;;;;;23.52;59.80;95602.78;5025276;28;20225;-75
2023/07/09 08:21:47;;;;;;;8.18;4.20;;;;;;;23.52;58.58;95605.47;5003466;28;20657;-76
2023/07/09 08:24:14;;;;;;;7.25;4.32;;;;;;;23.52;58.72;95604.66;5032607;28;20257;-74
2023/07/09 08:26:39;;;;;;;8.30;4.15;;;;;;;23.69;57.80;95598.00;5014021;28;20232;-75
2023/07/09 08:29:05;;;;;;;9.40;4.22;;;;;;;23.76;58.53;95600.44;5053539;28;20366;-74
2023/07/09 08:31:30;;;;;;;8.07;4.22;;;;;;;23.83;58.75;95603.66;5042520;28;20333;-75
2023/07/09 08:33:56;;;;;;;6.63;4.00;;;;;;;23.82;59.42;95602.84;5061351;28;20229;-75
2023/07/09 08:36:21;;;;;;;7.38;4.22;;;;;;;23.87;59.31;95594.84;5058625;28;20237;-74
2023/07/09 08:38:47;;;;;;;7.80;4.10;;;;;;;23.90;60.19;95601.53;5034764;28;20222;-75
2023/07/09 08:41:47;;;;;;;7.50;4.57;;;;;;;24.04;61.37;95602.59;5020837;28;20233;-74
2023/07/09 08:44:20;;;;;;;7.15;4.10;;;;;;;24.15;60.30;95595.41;5038744;28;20246;-75
2023/07/09 08:47:03;;;;;;;7.60;4.15;;;;;;;24.08;59.71;95599.16;5040567;28;20288;-75
2023/07/09 08:49:52;;;;;;;7.20;4.40;;;;;;;24.21;59.64;95597.81;5033267;28;20773;-75
2023/07/09 08:52:26;;;;;;;7.78;4.22;;;;;;;24.15;60.96;95592.72;5012728;28;20238;-75
2023/07/09 08:54:51;;;;;;;7.85;4.20;;;;;;;24.40;58.43;95596.22;5019439;28;20230;-75
2023/07/09 08:57:25;;;;;;;7.57;4.57;;;;;;;24.42;59.76;95599.41;5011938;28;20236;-74
2023/07/09 08:59:59;;;;;;;9.30;4.40;;;;;;;24.53;58.54;95595.66;5035908;28;20222;-75
2023/07/09 09:02:58;;;;;;;9.32;4.50;;;;;;;24.62;58.77;95595.91;5047126;28;20233;-76
2023/07/09 09:05:24;;;;;;;5.80;4.15;;;;;;;24.79;57.41;95596.44;5035128;28;20253;-75
2023/07/09 09:08:10;;;;;;;7.30;4.30;;;;;;;24.84;58.57;95604.44;5019345;28;20950;-75
2023/07/09 09:10:41;;;;;;;5.95;4.28;;;;;;;24.87;59.56;95601.22;5016257;28;20231;-75
2023/07/09 09:13:14;;;;;;;8.35;4.28;;;;;;;25.00;57.92;95603.34;5040020;28;20264;-75
2023/07/09 09:15:45;;;;;;;5.75;4.18;;;;;;;25.11;57.42;95601.44;5040458;28;20267;-74
2023/07/09 09:18:21;;;;;;;6.53;3.92;;;;;;;25.00;56.75;95594.50;5023792;28;20229;-74
2023/07/09 09:21:09;;;;;;;6.78;4.10;;;;;;;24.96;57.91;95596.91;5056839;28;20740;-75
2023/07/09 09:23:46;;;;;;;10.85;4.47;;;;;;;25.09;56.92;95592.88;5043268;28;20259;-76
2023/07/09 09:26:33;;;;;;;5.80;4.22;;;;;;;25.16;57.29;95596.84;5022898;28;20230;-76
2023/07/09 09:28:59;;;;;;;9.10;4.20;;;;;;;25.22;57.62;95597.66;5033430;28;20234;-74
2023/07/09 09:31:25;;;;;;;6.28;4.30;;;;;;;25.21;56.85;95588.00;5036716;28;20227;-76
2023/07/09 09:33:51;;;;;;;6.40;4.40;;;;;;;25.25;55.28;95592.53;5019274;28;20229;-74
2023/07/09 09:36:25;;;;;;;7.03;4.18;;;;;;;25.33;55.57;95583.13;5037073;28;20260;-74
2023/07/09 09:38:51;;;;;;;9.68;4.40;;;;;;;25.55;56.20;95590.81;5035206;28;20263;-77
2023/07/09 09:41:21;;;;;;;6.88;4.32;;;;;;;25.47;55.97;95586.84;5030964;28;20232;-78
2023/07/09 09:43:48;;;;;;;8.32;4.70;;;;;;;25.67;55.06;95581.38;5030740;28;20237;-76
2023/07/09 09:46:18;;;;;;;6.65;4.30;;;;;;;25.71;54.66;95584.28;5042282;28;20236;-76
2023/07/09 09:48:45;;;;;;;7.65;4.40;;;;;;;25.70;55.31;95580.78;5028093;28;20229;-75
2023/07/09 09:51:11;;;;;;;6.78;4.18;;;;;;;25.73;54.67;95574.88;5030189;28;20332;-75
2023/07/09 09:53:41;;;;;;;6.72;4.20;;;;;;;25.80;54.06;95577.25;5027957;28;20290;-76
2023/07/09 09:56:13;;;;;;;6.32;4.30;;;;;;;25.59;53.91;95573.09;5037429;28;20229;-74
2023/07/09 09:58:40;;;;;;;5.63;3.90;;;;;;;25.92;54.21;95585.75;5006495;28;20218;-77
2023/07/09 10:01:06;;;;;;;6.60;4.20;;;;;;;25.93;52.55;95580.13;5015202;28;20666;-77
2023/07/09 10:03:36;;;;;;;6.90;4.13;;;;;;;25.88;53.32;95574.78;5030270;28;20330;-74
2023/07/09 10:06:24;;;;;;;7.68;4.47;;;;;;;26.05;51.11;95569.84;5026123;28;20250;-75
2023/07/09 10:09:11;;;;;;;4.80;4.00;;;;;;;26.15;52.66;95577.03;5028310;28;20302;-78
2023/07/09 10:11:55;;;;;;;7.00;4.30;;;;;;;26.31;52.75;95567.75;5023572;28;20234;-75
2023/07/09 10:14:33;;;;;;;5.97;4.13;;;;;;;26.42;50.63;95573.81;5032967;28;20227;-77
2023/07/09 10:17:21;;;;;;;5.93;4.28;;;;;;;26.39;50.14;95569.03;5034291;28;20228;-77
2023/07/09 10:19:59;;;;;;;6.38;4.18;;;;;;;26.38;48.68;95568.22;5027009;28;20230;-76
2023/07/09 10:22:40;;;;;;;5.45;4.20;;;;;;;26.26;49.58;95570.47;4986599;28;20238;-75
2023/07/09 10:25:27;;;;;;;6.57;4.32;;;;;;;26.14;49.37;95562.00;5025854;28;20619;-75
2023/07/09 10:28:10;;;;;;;5.93;3.97;;;;;;;26.30;50.07;95565.34;5022943;28;20227;-75
2023/07/09 10:30:49;;;;;;;6.90;4.00;;;;;;;26.28;50.74;95575.56;5030229;28;20225;-76
2023/07/09 10:33:44;;;;;;;5.88;4.00;;;;;;;26.43;50.43;95559.31;5019777;28;20272;-75
2023/07/09 10:36:18;;;;;;;6.15;4.10;;;;;;;26.61;49.18;95554.03;5047350;28;20232;-76
2023/07/09 10:38:50;;;;;;;5.53;4.10;;;;;;;26.63;50.80;95562.59;5046554;28;20229;-75
2023/07/09 10:41:15;;;;;;;5.93;3.90;;;;;;;26.63;50.21;95551.84;5046918;28;20236;-75
2023/07/09 10:43:43;;;;;;;7.55;4.13;;;;;;;26.76;50.31;95555.00;5016776;28;20222;-75
2023/07/09 10:46:14;;;;;;;7.22;4.35;;;;;;;26.89;48.20;95551.63;5023815;28;20226;-75
2023/07/09 10:48:42;;;;;;;8.25;4.30;;;;;;;26.76;46.00;95557.66;5029872;28;20222;-77
2023/07/09 10:51:24;;;;;;;7.45;4.00;;;;;;;26.74;46.69;95548.00;5032750;28;20231;-75
2023/07/09 10:54:16;;;;;;;6.22;4.00;;;;;;;26.84;45.84;95557.06;5015931;28;20229;-75
2023/07/09 10:56:41;;;;;;;4.85;3.90;;;;;;;26.82;48.10;95559.25;5048090;28;20241;-77
2023/07/09 10:59:31;;;;;;;7.70;4.20;;;;;;;26.65;46.41;95555.06;5036109;28;20220;-76
2023/07/09 11:02:16;;;;;;;5.57;3.80;;;;;;;26.81;45.94;95544.19;5032952;28;20233;-76
2023/07/09 11:04:44;;;;;;;8.23;4.30;;;;;;;26.88;46.56;95544.66;5050518;28;20224;-76
2023/07/09 11:07:14;;;;;;;6.78;3.88;;;;;;;26.96;46.67;95547.53;5035789;28;20220;-75
2023/07/09 11:09:42;;;;;;;8.65;3.95;;;;;;;27.04;47.48;95549.56;5034763;28;20226;-77
2023/07/09 11:12:18;;;;;;;6.22;4.00;;;;;;;26.80;46.85;95538.00;5036695;28;20229;-75
2023/07/09 11:14:51;;;;;;;7.68;4.00;;;;;;;27.11;46.25;95547.31;5029798;28;20229;-75
2023/07/09 11:17:18;;;;;;;6.15;3.80;;;;;;;27.23;44.99;95563.03;5056268;28;20275;-75
2023/07/09 11:19:48;;;;;;;6.53;4.00;;;;;;;27.21;43.48;95557.13;5013871;28;20263;-76
2023/07/09 11:22:40;;;;;;;5.68;3.53;;;;;;;27.19;44.45;95545.88;5053078;28;20229;-74
2023/07/09 11:25:10;;;;;;;6.50;3.85;;;;;;;27.13;45.43;95547.81;5037734;28;20221;-75
2023/07/09 11:27:52;;;;;;;5.57;4.10;;;;;;;27.09;45.47;95541.44;5027840;28;20256;-75
2023/07/09 11:30:26;;;;;;;6.90;3.78;;;;;;;27.30;45.01;95544.66;5046647;28;20228;-76
2023/07/09 11:33:04;;;;;;;7.47;3.83;;;;;;;27.43;47.01;95540.50;5033078;28;20225;-75
2023/07/09 11:35:52;;;;;;;7.22;3.85;;;;;;;27.52;44.65;95544.13;5011736;28;20300;-76
2023/07/09 11:38:22;;;;;;;5.85;3.60;;;;;;;27.44;45.53;95540.22;5034328;28;20256;-74
2023/07/09 11:40:52;;;;;;;6.63;3.65;;;;;;;27.49;47.24;95533.97;5020765;28;20262;-76